sensor_id;sensor_type;location;lat;lon;timestamp;pressure;altitude;pressure_sealevel;temperature;humidity
7335;BME280;3708;42.632;23.378;2023-02-25T00:00:41;93706.03;;;10.44;56.91
7335;BME280;3708;42.632;23.378;2023-02-25T00:03:08;93691.53;;;9.74;58.96
7335;BME280;3708;42.632;23.378;2023-02-25T00:05:37;93701.47;;;10.05;57.93
7335;BME280;3708;42.632;23.378;2023-02-25T00:08:06;93700.34;;;9.57;59.71
7335;BME280;3708;42.632;23.378;2023-02-25T00:10:33;93701.88;;;9.58;59.61
7335;BME280;3708;42.632;23.378;2023-02-25T00:13:02;93709.09;;;9.97;59.08
7335;BME280;3708;42.632;23.378;2023-02-25T00:15:29;93707.84;;;10.16;58.67
7335;BME280;3708;42.632;23.378;2023-02-25T00:17:56;93692.75;;;10.37;58.24
7335;BME280;3708;42.632;23.378;2023-02-25T00:20:22;93687.25;;;10.54;57.76
7335;BME280;3708;42.632;23.378;2023-02-25T00:22:51;93694.22;;;10.62;57.47
7335;BME280;3708;42.632;23.378;2023-02-25T00:25:19;93703.31;;;10.40;57.02
7335;BME280;3708;42.632;23.378;2023-02-25T00:27:46;93693.19;;;10.03;57.55
7335;BME280;3708;42.632;23.378;2023-02-25T00:30:13;93693.19;;;10.27;57.66
7335;BME280;3708;42.632;23.378;2023-02-25T00:32:39;93681.81;;;10.47;57.47
7335;BME280;3708;42.632;23.378;2023-02-25T00:35:07;93680.09;;;10.39;57.06
7335;BME280;3708;42.632;23.378;2023-02-25T00:37:37;93683.56;;;10.43;57.25
7335;BME280;3708;42.632;23.378;2023-02-25T00:40:05;93675.50;;;10.48;56.91
7335;BME280;3708;42.632;23.378;2023-02-25T00:42:35;93683.31;;;10.60;56.82
7335;BME280;3708;42.632;23.378;2023-02-25T00:45:03;93677.69;;;10.34;57.04
7335;BME280;3708;42.632;23.378;2023-02-25T00:47:30;93674.00;;;10.35;56.96
7335;BME280;3708;42.632;23.378;2023-02-25T00:49:56;93670.34;;;10.51;57.02
7335;BME280;3708;42.632;23.378;2023-02-25T00:52:23;93657.13;;;10.60;56.82
7335;BME280;3708;42.632;23.378;2023-02-25T00:54:50;93644.97;;;10.67;56.63
7335;BME280;3708;42.632;23.378;2023-02-25T00:57:17;93650.66;;;10.69;56.19
7335;BME280;3708;42.632;23.378;2023-02-25T00:59:45;93643.53;;;10.82;56.02
7335;BME280;3708;42.632;23.378;2023-02-25T01:02:12;93642.69;;;10.78;55.98
7335;BME280;3708;42.632;23.378;2023-02-25T01:04:39;93640.38;;;10.77;55.57
7335;BME280;3708;42.632;23.378;2023-02-25T01:07:06;93634.13;;;10.81;55.63
7335;BME280;3708;42.632;23.378;2023-02-25T01:09:33;93624.47;;;10.69;55.60
7335;BME280;3708;42.632;23.378;2023-02-25T01:11:59;93623.72;;;10.69;55.69
7335;BME280;3708;42.632;23.378;2023-02-25T01:14:26;93628.41;;;10.91;55.36
7335;BME280;3708;42.632;23.378;2023-02-25T01:16:54;93622.16;;;10.96;54.92
7335;BME280;3708;42.632;23.378;2023-02-25T01:19:24;93627.25;;;10.49;55.49
7335;BME280;3708;42.632;23.378;2023-02-25T01:21:53;93616.84;;;10.64;55.52
7335;BME280;3708;42.632;23.378;2023-02-25T01:24:23;93614.50;;;10.75;55.02
7335;BME280;3708;42.632;23.378;2023-02-25T01:26:53;93627.97;;;10.61;54.98
7335;BME280;3708;42.632;23.378;2023-02-25T01:29:22;93628.69;;;10.46;55.55
7335;BME280;3708;42.632;23.378;2023-02-25T01:31:51;93622.53;;;10.66;55.24
7335;BME280;3708;42.632;23.378;2023-02-25T01:34:19;93618.84;;;10.55;55.13
7335;BME280;3708;42.632;23.378;2023-02-25T01:36:47;93602.34;;;10.67;55.03
7335;BME280;3708;42.632;23.378;2023-02-25T01:39:15;93616.44;;;10.62;54.93
7335;BME280;3708;42.632;23.378;2023-02-25T01:41:42;93603.47;;;10.54;55.55
7335;BME280;3708;42.632;23.378;2023-02-25T01:44:13;93612.38;;;10.65;55.41
7335;BME280;3708;42.632;23.378;2023-02-25T01:46:41;93611.84;;;10.59;55.64
7335;BME280;3708;42.632;23.378;2023-02-25T01:49:11;93624.78;;;10.68;55.84
7335;BME280;3708;42.632;23.378;2023-02-25T01:51:43;93618.59;;;10.33;56.85
7335;BME280;3708;42.632;23.378;2023-02-25T01:54:13;93614.75;;;10.70;56.30
7335;BME280;3708;42.632;23.378;2023-02-25T01:56:44;93613.28;;;10.85;55.67
7335;BME280;3708;42.632;23.378;2023-02-25T01:59:13;93624.03;;;10.95;55.36
7335;BME280;3708;42.632;23.378;2023-02-25T02:01:42;93615.19;;;11.00;54.67
7335;BME280;3708;42.632;23.378;2023-02-25T02:04:11;93621.22;;;10.88;54.80
7335;BME280;3708;42.632;23.378;2023-02-25T02:06:42;93617.09;;;10.59;56.28
7335;BME280;3708;42.632;23.378;2023-02-25T02:09:12;93609.41;;;10.94;55.94
7335;BME280;3708;42.632;23.378;2023-02-25T02:11:40;93596.91;;;11.03;55.33
7335;BME280;3708;42.632;23.378;2023-02-25T02:14:09;93611.84;;;10.87;55.27
7335;BME280;3708;42.632;23.378;2023-02-25T02:16:53;93613.72;;;11.02;55.62
7335;BME280;3708;42.632;23.378;2023-02-25T02:19:35;93605.13;;;11.17;55.67
7335;BME280;3708;42.632;23.378;2023-02-25T02:22:10;93584.16;;;11.17;55.67
7335;BME280;3708;42.632;23.378;2023-02-25T02:28:00;93592.03;;;11.33;55.28
7335;BME280;3708;42.632;23.378;2023-02-25T02:30:47;93581.38;;;11.26;55.63
7335;BME280;3708;42.632;23.378;2023-02-25T02:33:24;93585.34;;;11.35;55.61
7335;BME280;3708;42.632;23.378;2023-02-25T02:35:59;93557.59;;;11.34;55.52
7335;BME280;3708;42.632;23.378;2023-02-25T02:38:33;93559.56;;;11.37;54.55
7335;BME280;3708;42.632;23.378;2023-02-25T02:41:06;93563.03;;;11.10;55.74
7335;BME280;3708;42.632;23.378;2023-02-25T02:43:40;93564.31;;;11.32;55.24
7335;BME280;3708;42.632;23.378;2023-02-25T02:46:14;93565.72;;;11.14;55.87
7335;BME280;3708;42.632;23.378;2023-02-25T02:48:50;93554.75;;;11.08;56.47
7335;BME280;3708;42.632;23.378;2023-02-25T02:51:22;93554.41;;;11.25;56.19
7335;BME280;3708;42.632;23.378;2023-02-25T02:53:53;93545.09;;;11.43;55.34
7335;BME280;3708;42.632;23.378;2023-02-25T02:56:22;93536.72;;;11.38;55.46
7335;BME280;3708;42.632;23.378;2023-02-25T02:58:52;93540.84;;;11.55;55.01
7335;BME280;3708;42.632;23.378;2023-02-25T03:01:26;93553.88;;;11.67;54.57
7335;BME280;3708;42.632;23.378;2023-02-25T03:03:59;93541.84;;;11.66;54.10
7335;BME280;3708;42.632;23.378;2023-02-25T03:06:30;93529.69;;;11.42;53.94
7335;BME280;3708;42.632;23.378;2023-02-25T03:09:03;93526.75;;;11.12;54.81
7335;BME280;3708;42.632;23.378;2023-02-25T03:11:31;93526.59;;;10.46;56.36
7335;BME280;3708;42.632;23.378;2023-02-25T03:13:58;93540.06;;;10.60;56.23
7335;BME280;3708;42.632;23.378;2023-02-25T03:16:28;93526.97;;;10.76;55.47
7335;BME280;3708;42.632;23.378;2023-02-25T03:19:02;93523.94;;;10.74;55.11
7335;BME280;3708;42.632;23.378;2023-02-25T03:21:36;93524.44;;;10.64;55.49
7335;BME280;3708;42.632;23.378;2023-02-25T03:24:08;93539.22;;;10.56;55.29
7335;BME280;3708;42.632;23.378;2023-02-25T03:26:37;93546.19;;;9.73;57.74
7335;BME280;3708;42.632;23.378;2023-02-25T03:29:13;93538.50;;;9.40;59.43
7335;BME280;3708;42.632;23.378;2023-02-25T03:31:44;93532.81;;;9.38;58.23
7335;BME280;3708;42.632;23.378;2023-02-25T03:34:17;93533.16;;;9.49;59.11
7335;BME280;3708;42.632;23.378;2023-02-25T03:36:48;93534.13;;;9.56;59.16
7335;BME280;3708;42.632;23.378;2023-02-25T03:39:23;93542.06;;;10.24;57.89
7335;BME280;3708;42.632;23.378;2023-02-25T03:41:54;93535.41;;;10.54;57.14
7335;BME280;3708;42.632;23.378;2023-02-25T03:44:24;93532.09;;;10.57;56.48
7335;BME280;3708;42.632;23.378;2023-02-25T03:46:53;93536.13;;;10.82;55.94
7335;BME280;3708;42.632;23.378;2023-02-25T03:49:26;93542.03;;;10.79;55.66
7335;BME280;3708;42.632;23.378;2023-02-25T03:51:55;93537.38;;;10.72;55.57
7335;BME280;3708;42.632;23.378;2023-02-25T03:54:22;93546.44;;;10.20;56.57
7335;BME280;3708;42.632;23.378;2023-02-25T03:56:50;93539.72;;;10.62;56.13
7335;BME280;3708;42.632;23.378;2023-02-25T03:59:18;93527.66;;;10.73;55.73
7335;BME280;3708;42.632;23.378;2023-02-25T04:01:49;93517.59;;;10.32;55.43
7335;BME280;3708;42.632;23.378;2023-02-25T04:04:17;93506.25;;;10.00;56.85
7335;BME280;3708;42.632;23.378;2023-02-25T04:06:45;93512.78;;;10.34;56.11
7335;BME280;3708;42.632;23.378;2023-02-25T04:09:13;93505.22;;;10.17;56.23
7335;BME280;3708;42.632;23.378;2023-02-25T04:11:39;93511.88;;;10.42;55.70
7335;BME280;3708;42.632;23.378;2023-02-25T04:14:06;93511.44;;;10.40;55.36
7335;BME280;3708;42.632;23.378;2023-02-25T04:16:33;93520.66;;;9.82;56.50
7335;BME280;3708;42.632;23.378;2023-02-25T04:19:00;93525.31;;;9.25;58.41
7335;BME280;3708;42.632;23.378;2023-02-25T04:21:29;93531.50;;;9.08;59.52
7335;BME280;3708;42.632;23.378;2023-02-25T04:23:58;93532.81;;;8.45;61.80
7335;BME280;3708;42.632;23.378;2023-02-25T04:26:25;93535.41;;;8.24;62.50
7335;BME280;3708;42.632;23.378;2023-02-25T04:28:53;93532.19;;;7.86;63.86
7335;BME280;3708;42.632;23.378;2023-02-25T04:31:20;93520.78;;;8.65;62.97
7335;BME280;3708;42.632;23.378;2023-02-25T04:33:47;93520.19;;;9.16;60.93
7335;BME280;3708;42.632;23.378;2023-02-25T04:36:22;93506.56;;;9.35;60.37
7335;BME280;3708;42.632;23.378;2023-02-25T04:38:49;93519.22;;;9.33;59.57
7335;BME280;3708;42.632;23.378;2023-02-25T04:41:18;93510.16;;;9.54;59.13
7335;BME280;3708;42.632;23.378;2023-02-25T04:43:44;93505.19;;;9.77;58.24
7335;BME280;3708;42.632;23.378;2023-02-25T04:46:12;93498.06;;;9.50;58.38
7335;BME280;3708;42.632;23.378;2023-02-25T04:48:39;93495.63;;;9.69;58.25
7335;BME280;3708;42.632;23.378;2023-02-25T04:51:06;93497.47;;;9.80;58.04
7335;BME280;3708;42.632;23.378;2023-02-25T04:53:34;93486.81;;;10.01;57.61
7335;BME280;3708;42.632;23.378;2023-02-25T04:56:02;93476.56;;;10.08;57.20
7335;BME280;3708;42.632;23.378;2023-02-25T04:58:31;93481.03;;;10.08;57.05
7335;BME280;3708;42.632;23.378;2023-02-25T05:00:58;93467.84;;;9.64;57.42
7335;BME280;3708;42.632;23.378;2023-02-25T05:03:25;93458.22;;;9.41;57.87
7335;BME280;3708;42.632;23.378;2023-02-25T05:05:52;93474.31;;;9.43;57.99
7335;BME280;3708;42.632;23.378;2023-02-25T05:08:19;93476.44;;;9.25;58.16
7335;BME280;3708;42.632;23.378;2023-02-25T05:10:47;93459.34;;;8.79;59.59
7335;BME280;3708;42.632;23.378;2023-02-25T05:13:14;93438.13;;;8.69;60.71
7335;BME280;3708;42.632;23.378;2023-02-25T05:15:42;93453.13;;;8.72;60.38
7335;BME280;3708;42.632;23.378;2023-02-25T05:18:09;93456.28;;;9.01;59.70
7335;BME280;3708;42.632;23.378;2023-02-25T05:20:39;93461.47;;;8.08;61.55
7335;BME280;3708;42.632;23.378;2023-02-25T05:23:07;93450.94;;;7.43;64.65
7335;BME280;3708;42.632;23.378;2023-02-25T05:25:34;93457.91;;;8.13;62.95
7335;BME280;3708;42.632;23.378;2023-02-25T05:28:00;93452.88;;;8.40;62.10
7335;BME280;3708;42.632;23.378;2023-02-25T05:30:27;93456.47;;;8.15;62.34
7335;BME280;3708;42.632;23.378;2023-02-25T05:32:55;93479.53;;;7.72;63.92
7335;BME280;3708;42.632;23.378;2023-02-25T05:35:22;93460.84;;;7.91;63.73
7335;BME280;3708;42.632;23.378;2023-02-25T05:37:49;93486.50;;;8.21;62.57
7335;BME280;3708;42.632;23.378;2023-02-25T05:40:16;93512.09;;;8.07;62.06
7335;BME280;3708;42.632;23.378;2023-02-25T05:42:43;93500.59;;;8.08;62.57
7335;BME280;3708;42.632;23.378;2023-02-25T05:45:14;93542.22;;;8.37;62.51
7335;BME280;3708;42.632;23.378;2023-02-25T05:47:42;93536.88;;;7.72;64.28
7335;BME280;3708;42.632;23.378;2023-02-25T05:50:11;93531.88;;;8.08;64.88
7335;BME280;3708;42.632;23.378;2023-02-25T05:52:38;93542.59;;;8.48;62.99
7335;BME280;3708;42.632;23.378;2023-02-25T05:55:06;93515.25;;;8.33;63.96
7335;BME280;3708;42.632;23.378;2023-02-25T05:57:34;93545.53;;;8.91;62.44
7335;BME280;3708;42.632;23.378;2023-02-25T06:00:04;93556.16;;;8.74;62.03
7335;BME280;3708;42.632;23.378;2023-02-25T06:02:39;93541.84;;;8.92;61.93
7335;BME280;3708;42.632;23.378;2023-02-25T06:05:07;93562.09;;;9.07;61.21
7335;BME280;3708;42.632;23.378;2023-02-25T06:07:40;93557.66;;;9.44;60.26
7335;BME280;3708;42.632;23.378;2023-02-25T06:10:09;93550.63;;;9.84;59.88
7335;BME280;3708;42.632;23.378;2023-02-25T06:12:36;93570.41;;;10.10;59.19
7335;BME280;3708;42.632;23.378;2023-02-25T06:15:03;93559.56;;;10.35;58.51
7335;BME280;3708;42.632;23.378;2023-02-25T06:17:30;93566.47;;;10.55;57.71
7335;BME280;3708;42.632;23.378;2023-02-25T06:19:57;93541.28;;;10.51;57.31
7335;BME280;3708;42.632;23.378;2023-02-25T06:22:24;93531.38;;;10.44;57.76
7335;BME280;3708;42.632;23.378;2023-02-25T06:24:52;93544.53;;;10.60;57.57
7335;BME280;3708;42.632;23.378;2023-02-25T06:27:19;93548.69;;;10.77;57.03
7335;BME280;3708;42.632;23.378;2023-02-25T06:29:46;93538.91;;;10.89;56.58
7335;BME280;3708;42.632;23.378;2023-02-25T06:32:13;93550.34;;;10.97;56.40
7335;BME280;3708;42.632;23.378;2023-02-25T06:34:40;93510.19;;;10.93;55.85
7335;BME280;3708;42.632;23.378;2023-02-25T06:37:08;93510.00;;;10.86;56.15
7335;BME280;3708;42.632;23.378;2023-02-25T06:39:34;93565.28;;;10.53;56.45
7335;BME280;3708;42.632;23.378;2023-02-25T06:42:03;93541.69;;;10.65;56.45
7335;BME280;3708;42.632;23.378;2023-02-25T06:44:30;93526.06;;;10.84;56.04
7335;BME280;3708;42.632;23.378;2023-02-25T06:46:56;93552.50;;;10.79;56.14
7335;BME280;3708;42.632;23.378;2023-02-25T06:49:23;93544.50;;;10.88;55.91
7335;BME280;3708;42.632;23.378;2023-02-25T06:51:50;93541.56;;;11.20;55.18
7335;BME280;3708;42.632;23.378;2023-02-25T06:54:17;93551.19;;;11.32;54.35
7335;BME280;3708;42.632;23.378;2023-02-25T06:56:44;93512.84;;;11.43;53.69
7335;BME280;3708;42.632;23.378;2023-02-25T06:59:12;93516.44;;;11.19;54.76
7335;BME280;3708;42.632;23.378;2023-02-25T07:01:39;93519.97;;;11.27;54.46
7335;BME280;3708;42.632;23.378;2023-02-25T07:04:06;93513.97;;;11.26;54.64
7335;BME280;3708;42.632;23.378;2023-02-25T07:06:33;93502.28;;;11.71;54.25
7335;BME280;3708;42.632;23.378;2023-02-25T07:09:00;93513.06;;;11.85;53.75
7335;BME280;3708;42.632;23.378;2023-02-25T07:11:29;93470.44;;;11.91;53.26
7335;BME280;3708;42.632;23.378;2023-02-25T07:13:58;93472.00;;;12.11;53.16
7335;BME280;3708;42.632;23.378;2023-02-25T07:16:26;93471.63;;;12.13;53.09
7335;BME280;3708;42.632;23.378;2023-02-25T07:18:54;93468.56;;;12.30;52.66
7335;BME280;3708;42.632;23.378;2023-02-25T07:21:40;93472.38;;;12.74;51.48
7335;BME280;3708;42.632;23.378;2023-02-25T07:24:07;93472.78;;;12.76;50.86
7335;BME280;3708;42.632;23.378;2023-02-25T07:26:34;93463.63;;;12.89;50.56
7335;BME280;3708;42.632;23.378;2023-02-25T07:29:00;93472.50;;;13.04;50.31
7335;BME280;3708;42.632;23.378;2023-02-25T07:31:29;93464.06;;;12.50;50.96
7335;BME280;3708;42.632;23.378;2023-02-25T07:33:56;93460.13;;;12.82;50.19
7335;BME280;3708;42.632;23.378;2023-02-25T07:36:27;93451.47;;;13.04;50.08
7335;BME280;3708;42.632;23.378;2023-02-25T07:38:57;93437.94;;;12.57;50.70
7335;BME280;3708;42.632;23.378;2023-02-25T07:41:24;93429.34;;;13.05;49.86
7335;BME280;3708;42.632;23.378;2023-02-25T07:43:51;93430.13;;;13.32;49.29
7335;BME280;3708;42.632;23.378;2023-02-25T07:46:18;93424.91;;;13.35;49.00
7335;BME280;3708;42.632;23.378;2023-02-25T07:48:46;93425.25;;;13.60;48.35
7335;BME280;3708;42.632;23.378;2023-02-25T07:51:15;93421.97;;;13.14;48.70
7335;BME280;3708;42.632;23.378;2023-02-25T07:53:43;93407.53;;;13.31;48.49
7335;BME280;3708;42.632;23.378;2023-02-25T07:56:11;93396.41;;;13.67;48.14
7335;BME280;3708;42.632;23.378;2023-02-25T07:58:38;93402.13;;;13.76;47.20
7335;BME280;3708;42.632;23.378;2023-02-25T08:01:07;93403.56;;;13.70;47.19
7335;BME280;3708;42.632;23.378;2023-02-25T08:03:34;93400.09;;;13.07;48.94
7335;BME280;3708;42.632;23.378;2023-02-25T08:06:02;93391.44;;;13.62;48.22
7335;BME280;3708;42.632;23.378;2023-02-25T08:08:32;93374.34;;;14.12;46.93
7335;BME280;3708;42.632;23.378;2023-02-25T08:11:04;93395.03;;;14.13;46.68
7335;BME280;3708;42.632;23.378;2023-02-25T08:13:31;93396.13;;;14.45;46.35
7335;BME280;3708;42.632;23.378;2023-02-25T08:15:58;93395.63;;;14.73;45.79
7335;BME280;3708;42.632;23.378;2023-02-25T08:18:24;93375.75;;;14.83;45.14
7335;BME280;3708;42.632;23.378;2023-02-25T08:20:51;93394.03;;;15.12;44.77
7335;BME280;3708;42.632;23.378;2023-02-25T08:23:21;93387.84;;;14.87;44.35
7335;BME280;3708;42.632;23.378;2023-02-25T08:25:51;93376.06;;;14.74;44.20
7335;BME280;3708;42.632;23.378;2023-02-25T08:28:19;93376.69;;;14.24;45.37
7335;BME280;3708;42.632;23.378;2023-02-25T08:30:47;93387.81;;;14.40;44.81
7335;BME280;3708;42.632;23.378;2023-02-25T08:33:14;93379.09;;;14.76;44.45
7335;BME280;3708;42.632;23.378;2023-02-25T08:35:41;93384.56;;;14.57;43.63
7335;BME280;3708;42.632;23.378;2023-02-25T08:38:07;93389.34;;;14.08;44.93
7335;BME280;3708;42.632;23.378;2023-02-25T08:40:36;93360.91;;;13.87;45.52
7335;BME280;3708;42.632;23.378;2023-02-25T08:43:03;93373.84;;;14.36;44.77
7335;BME280;3708;42.632;23.378;2023-02-25T08:45:30;93368.63;;;14.06;44.47
7335;BME280;3708;42.632;23.378;2023-02-25T08:47:57;93367.94;;;14.13;44.70
7335;BME280;3708;42.632;23.378;2023-02-25T08:50:25;93360.13;;;13.87;45.27
7335;BME280;3708;42.632;23.378;2023-02-25T08:52:52;93370.91;;;14.08;44.19
7335;BME280;3708;42.632;23.378;2023-02-25T08:55:18;93338.22;;;14.12;44.22
7335;BME280;3708;42.632;23.378;2023-02-25T08:57:50;93357.84;;;14.59;43.49
7335;BME280;3708;42.632;23.378;2023-02-25T09:00:18;93354.19;;;14.70;43.17
7335;BME280;3708;42.632;23.378;2023-02-25T09:02:45;93345.66;;;14.91;42.87
7335;BME280;3708;42.632;23.378;2023-02-25T09:05:13;93356.72;;;15.07;42.06
7335;BME280;3708;42.632;23.378;2023-02-25T09:07:40;93363.63;;;15.29;41.91
7335;BME280;3708;42.632;23.378;2023-02-25T09:10:10;93350.94;;;15.49;41.63
7335;BME280;3708;42.632;23.378;2023-02-25T09:12:38;93351.56;;;15.28;41.74
7335;BME280;3708;42.632;23.378;2023-02-25T09:15:09;93341.63;;;15.07;42.35
7335;BME280;3708;42.632;23.378;2023-02-25T09:17:36;93331.31;;;14.85;43.14
7335;BME280;3708;42.632;23.378;2023-02-25T09:20:04;93331.13;;;15.11;43.10
7335;BME280;3708;42.632;23.378;2023-02-25T09:22:32;93325.19;;;15.24;43.03
7335;BME280;3708;42.632;23.378;2023-02-25T09:24:59;93332.09;;;14.85;43.45
7335;BME280;3708;42.632;23.378;2023-02-25T09:27:28;93341.56;;;14.97;43.59
7335;BME280;3708;42.632;23.378;2023-02-25T09:29:55;93328.25;;;15.37;43.03
7335;BME280;3708;42.632;23.378;2023-02-25T09:32:23;93330.59;;;15.49;42.99
7335;BME280;3708;42.632;23.378;2023-02-25T09:34:50;93337.16;;;15.15;43.93
7335;BME280;3708;42.632;23.378;2023-02-25T09:37:17;93314.91;;;15.09;44.37
7335;BME280;3708;42.632;23.378;2023-02-25T09:39:45;93285.19;;;15.19;44.54
7335;BME280;3708;42.632;23.378;2023-02-25T09:42:15;93302.25;;;15.39;44.18
7335;BME280;3708;42.632;23.378;2023-02-25T09:44:46;93301.56;;;15.53;43.98
7335;BME280;3708;42.632;23.378;2023-02-25T09:47:16;93315.72;;;15.23;44.24
7335;BME280;3708;42.632;23.378;2023-02-25T09:49:50;93304.31;;;14.98;44.57
7335;BME280;3708;42.632;23.378;2023-02-25T09:52:22;93282.44;;;14.94;45.07
7335;BME280;3708;42.632;23.378;2023-02-25T09:54:55;93291.00;;;14.81;45.27
7335;BME280;3708;42.632;23.378;2023-02-25T09:57:24;93279.72;;;14.84;45.08
7335;BME280;3708;42.632;23.378;2023-02-25T09:59:54;93277.56;;;15.03;44.72
7335;BME280;3708;42.632;23.378;2023-02-25T10:02:31;93275.69;;;15.07;44.76
7335;BME280;3708;42.632;23.378;2023-02-25T10:05:16;93269.25;;;14.98;44.68
7335;BME280;3708;42.632;23.378;2023-02-25T10:08:02;93279.06;;;15.01;44.74
7335;BME280;3708;42.632;23.378;2023-02-25T10:10:38;93251.34;;;14.63;45.60
7335;BME280;3708;42.632;23.378;2023-02-25T10:13:20;93288.31;;;14.74;44.77
7335;BME280;3708;42.632;23.378;2023-02-25T10:15:55;93274.63;;;15.19;44.21
7335;BME280;3708;42.632;23.378;2023-02-25T10:18:43;93258.88;;;15.33;43.74
7335;BME280;3708;42.632;23.378;2023-02-25T10:21:22;93261.22;;;15.49;44.05
7335;BME280;3708;42.632;23.378;2023-02-25T10:24:15;93229.22;;;15.68;43.17
7335;BME280;3708;42.632;23.378;2023-02-25T10:26:52;93244.72;;;15.83;42.86
7335;BME280;3708;42.632;23.378;2023-02-25T10:29:26;93217.59;;;16.04;42.41
7335;BME280;3708;42.632;23.378;2023-02-25T10:31:58;93214.56;;;16.06;42.03
7335;BME280;3708;42.632;23.378;2023-02-25T10:34:27;93222.84;;;15.86;41.73
7335;BME280;3708;42.632;23.378;2023-02-25T10:36:57;93222.47;;;15.98;41.12
7335;BME280;3708;42.632;23.378;2023-02-25T10:39:26;93207.41;;;16.24;41.69
7335;BME280;3708;42.632;23.378;2023-02-25T10:41:55;93219.06;;;16.26;40.65
7335;BME280;3708;42.632;23.378;2023-02-25T10:44:22;93222.50;;;16.62;40.73
7335;BME280;3708;42.632;23.378;2023-02-25T10:46:53;93201.34;;;16.55;40.19
7335;BME280;3708;42.632;23.378;2023-02-25T10:49:22;93193.41;;;16.69;39.70
7335;BME280;3708;42.632;23.378;2023-02-25T10:51:58;93197.94;;;16.68;39.19
7335;BME280;3708;42.632;23.378;2023-02-25T10:54:28;93179.75;;;16.85;39.11
7335;BME280;3708;42.632;23.378;2023-02-25T10:56:58;93183.09;;;16.96;38.89
7335;BME280;3708;42.632;23.378;2023-02-25T10:59:29;93180.06;;;17.04;38.70
7335;BME280;3708;42.632;23.378;2023-02-25T11:01:58;93179.69;;;16.95;38.59
7335;BME280;3708;42.632;23.378;2023-02-25T11:04:32;93163.13;;;16.88;38.11
7335;BME280;3708;42.632;23.378;2023-02-25T11:07:00;93175.19;;;16.92;37.86
7335;BME280;3708;42.632;23.378;2023-02-25T11:09:31;93159.31;;;16.96;37.97
7335;BME280;3708;42.632;23.378;2023-02-25T11:12:08;93159.59;;;17.15;37.97
7335;BME280;3708;42.632;23.378;2023-02-25T11:14:37;93167.44;;;17.36;37.33
7335;BME280;3708;42.632;23.378;2023-02-25T11:17:06;93159.84;;;17.38;37.22
7335;BME280;3708;42.632;23.378;2023-02-25T11:19:39;93174.28;;;17.30;36.72
7335;BME280;3708;42.632;23.378;2023-02-25T11:22:15;93162.56;;;17.31;36.78
7335;BME280;3708;42.632;23.378;2023-02-25T11:24:43;93151.56;;;17.36;36.87
7335;BME280;3708;42.632;23.378;2023-02-25T11:27:24;93139.38;;;17.57;37.03
7335;BME280;3708;42.632;23.378;2023-02-25T11:29:52;93156.16;;;17.22;36.39
7335;BME280;3708;42.632;23.378;2023-02-25T11:32:21;93144.69;;;17.46;36.34
7335;BME280;3708;42.632;23.378;2023-02-25T11:34:51;93141.88;;;17.78;35.71
7335;BME280;3708;42.632;23.378;2023-02-25T11:37:25;93137.72;;;17.73;35.16
7335;BME280;3708;42.632;23.378;2023-02-25T11:39:58;93132.63;;;18.00;34.80
7335;BME280;3708;42.632;23.378;2023-02-25T11:42:26;93133.25;;;17.67;34.81
7335;BME280;3708;42.632;23.378;2023-02-25T11:44:58;93135.84;;;17.74;34.84
7335;BME280;3708;42.632;23.378;2023-02-25T11:47:26;93160.16;;;17.62;34.86
7335;BME280;3708;42.632;23.378;2023-02-25T11:50:15;93139.13;;;17.92;33.52
7335;BME280;3708;42.632;23.378;2023-02-25T11:52:50;93136.75;;;18.01;34.09
7335;BME280;3708;42.632;23.378;2023-02-25T11:55:34;93147.25;;;18.15;33.66
7335;BME280;3708;42.632;23.378;2023-02-25T11:58:10;93148.13;;;18.42;33.42
7335;BME280;3708;42.632;23.378;2023-02-25T12:00:45;93142.91;;;17.91;32.98
7335;BME280;3708;42.632;23.378;2023-02-25T12:06:22;93134.97;;;18.32;32.86
7335;BME280;3708;42.632;23.378;2023-02-25T12:09:18;93143.28;;;18.37;32.98
7335;BME280;3708;42.632;23.378;2023-02-25T12:12:18;93157.03;;;18.21;33.07
7335;BME280;3708;42.632;23.378;2023-02-25T12:21:32;93161.38;;;18.42;31.72
7335;BME280;3708;42.632;23.378;2023-02-25T12:24:25;93169.09;;;18.70;31.44
7335;BME280;3708;42.632;23.378;2023-02-25T12:27:11;93153.81;;;18.81;30.81
7335;BME280;3708;42.632;23.378;2023-02-25T12:29:59;93147.91;;;18.26;31.51
7335;BME280;3708;42.632;23.378;2023-02-25T12:32:41;93159.66;;;18.66;31.44
7335;BME280;3708;42.632;23.378;2023-02-25T12:35:38;93137.28;;;19.04;30.89
7335;BME280;3708;42.632;23.378;2023-02-25T12:38:23;93142.22;;;18.68;31.31
7335;BME280;3708;42.632;23.378;2023-02-25T12:41:14;93122.53;;;18.66;31.30
7335;BME280;3708;42.632;23.378;2023-02-25T12:43:48;93116.91;;;18.94;31.29
7335;BME280;3708;42.632;23.378;2023-02-25T12:46:38;93100.81;;;18.78;31.13
7335;BME280;3708;42.632;23.378;2023-02-25T12:49:33;93098.84;;;18.07;31.21
7335;BME280;3708;42.632;23.378;2023-02-25T12:52:16;93092.72;;;18.17;31.73
7335;BME280;3708;42.632;23.378;2023-02-25T12:55:21;93058.41;;;18.03;31.49
7335;BME280;3708;42.632;23.378;2023-02-25T12:58:05;93077.94;;;18.20;31.26
7335;BME280;3708;42.632;23.378;2023-02-25T13:01:00;93076.28;;;18.70;30.77
7335;BME280;3708;42.632;23.378;2023-02-25T13:03:50;93060.91;;;18.88;30.37
7335;BME280;3708;42.632;23.378;2023-02-25T13:06:40;93064.19;;;18.66;30.50
7335;BME280;3708;42.632;23.378;2023-02-25T13:09:25;93049.03;;;18.96;29.95
7335;BME280;3708;42.632;23.378;2023-02-25T13:12:08;93069.41;;;18.73;30.18
7335;BME280;3708;42.632;23.378;2023-02-25T13:14:57;93064.31;;;18.55;30.22
7335;BME280;3708;42.632;23.378;2023-02-25T13:17:46;93071.38;;;18.32;30.68
7335;BME280;3708;42.632;23.378;2023-02-25T13:20:44;93064.75;;;18.13;31.41
7335;BME280;3708;42.632;23.378;2023-02-25T13:23:30;93023.53;;;18.42;31.06
7335;BME280;3708;42.632;23.378;2023-02-25T13:26:09;93028.19;;;18.31;31.14
7335;BME280;3708;42.632;23.378;2023-02-25T13:28:51;92994.16;;;18.29;30.40
7335;BME280;3708;42.632;23.378;2023-02-25T13:31:27;93042.22;;;18.32;30.19
7335;BME280;3708;42.632;23.378;2023-02-25T13:34:09;92983.97;;;17.91;30.93
7335;BME280;3708;42.632;23.378;2023-02-25T13:36:50;93037.44;;;18.53;30.24
7335;BME280;3708;42.632;23.378;2023-02-25T13:42:41;93024.94;;;18.84;29.39
7335;BME280;3708;42.632;23.378;2023-02-25T13:45:45;93011.34;;;19.09;29.29
7335;BME280;3708;42.632;23.378;2023-02-25T13:51:42;93048.63;;;18.98;28.86
7335;BME280;3708;42.632;23.378;2023-02-25T13:54:22;93040.38;;;18.92;29.33